Time;durP1;ratioP1;P1;durP2;ratioP2;P2;SDS_P1;SDS_P2;PMS_P1;PMS_P2;Temp;Humidity;BMP_temperature;BMP_pressure;BME280_temperature;BME280_humidity;BME280_pressure;Samples;Min_cycle;Max_cycle;Signal;HPM_P1;HPM_P2
2023/04/19 00:00:11;;;;;;;21.87;8.90;;;;;;;4.54;100.00;102858.03;7394914;19;20446;-35
2023/04/19 00:02:40;;;;;;;13.30;7.60;;;;;;;4.65;100.00;102875.38;7394798;19;20931;-36
2023/04/19 00:05:14;;;;;;;23.83;12.33;;;;;;;4.56;100.00;102882.13;7392489;19;20467;-36
2023/04/19 00:07:43;;;;;;;26.83;12.60;;;;;;;4.55;100.00;102873.53;7397733;19;20942;-36
2023/04/19 00:10:13;;;;;;;50.00;23.70;;;;;;;4.56;100.00;102864.22;7392091;19;20445;-35
2023/04/19 00:12:42;;;;;;;23.03;11.20;;;;;;;4.53;100.00;102866.47;7395974;19;20521;-36
2023/04/19 00:15:12;;;;;;;65.60;28.83;;;;;;;4.55;100.00;102868.44;7392538;19;20821;-35
2023/04/19 00:17:42;;;;;;;20.73;9.53;;;;;;;4.52;100.00;102852.75;7395713;19;20423;-37
2023/04/19 00:20:14;;;;;;;13.33;6.70;;;;;;;4.46;100.00;102840.28;7393840;19;20427;-35
2023/04/19 00:22:44;;;;;;;39.47;16.83;;;;;;;4.42;100.00;102845.81;7395950;19;20407;-35
2023/04/19 00:25:13;;;;;;;28.60;12.37;;;;;;;4.50;100.00;102831.25;7392585;19;20514;-36
2023/04/19 00:27:43;;;;;;;20.43;9.60;;;;;;;4.53;100.00;102835.78;7395579;19;20415;-36
2023/04/19 00:30:13;;;;;;;22.33;9.17;;;;;;;4.50;100.00;102820.16;7392210;19;20483;-36
2023/04/19 00:32:43;;;;;;;13.93;6.10;;;;;;;4.45;100.00;102789.91;7395550;19;20419;-35
2023/04/19 00:35:16;;;;;;;31.70;13.20;;;;;;;4.45;100.00;102789.91;7391648;19;20475;-36
2023/04/19 00:37:45;;;;;;;20.17;8.70;;;;;;;4.44;100.00;102780.44;7395169;19;20404;-36
2023/04/19 00:40:15;;;;;;;26.00;11.83;;;;;;;4.50;100.00;102781.81;7392976;19;20467;-36
2023/04/19 00:42:44;;;;;;;39.50;16.97;;;;;;;4.56;100.00;102779.84;7394915;19;20861;-36
2023/04/19 00:45:14;;;;;;;44.73;21.00;;;;;;;4.60;100.00;102776.84;7391825;19;20478;-37
2023/04/19 00:47:43;;;;;;;22.83;10.80;;;;;;;4.49;100.00;102763.00;7396146;19;20407;-36
2023/04/19 00:50:16;;;;;;;9.40;4.70;;;;;;;4.33;100.00;102729.91;7391516;19;20983;-35
2023/04/19 00:52:45;;;;;;;20.20;8.80;;;;;;;4.40;100.00;102736.50;7393945;19;20771;-35
2023/04/19 00:55:15;;;;;;;15.03;6.50;;;;;;;4.32;100.00;102729.00;7391486;19;20459;-36
2023/04/19 00:57:45;;;;;;;36.87;14.80;;;;;;;4.36;100.00;102739.53;7396596;19;20427;-36
2023/04/19 01:00:16;;;;;;;33.07;16.00;;;;;;;4.41;100.00;102749.44;7392605;19;20455;-36
2023/04/19 01:02:45;;;;;;;18.67;8.90;;;;;;;4.38;100.00;102738.94;7394718;19;20415;-36
2023/04/19 01:05:18;;;;;;;35.67;13.03;;;;;;;4.39;100.00;102743.28;7390709;19;20463;-36
2023/04/19 01:07:47;;;;;;;28.77;11.50;;;;;;;4.38;100.00;102732.91;7394012;19;20447;-37
2023/04/19 01:10:17;;;;;;;11.17;5.50;;;;;;;4.30;100.00;102719.38;7391328;19;20439;-36
2023/04/19 01:12:46;;;;;;;22.17;8.70;;;;;;;4.27;100.00;102714.88;7392481;19;20407;-36
2023/04/19 01:15:16;;;;;;;9.00;4.80;;;;;;;4.23;100.00;102711.84;7389992;19;20997;-36
2023/04/19 01:17:45;;;;;;;15.30;8.53;;;;;;;4.24;100.00;102708.53;7394408;19;20411;-37
2023/04/19 01:20:18;;;;;;;43.83;21.03;;;;;;;4.29;100.00;102715.00;7391659;19;21005;-36
2023/04/19 01:22:50;;;;;;;22.60;11.03;;;;;;;4.29;100.00;102708.25;7394517;19;20408;-36
2023/04/19 01:25:19;;;;;;;23.23;9.90;;;;;;;4.20;100.00;102709.88;7390612;19;20459;-36
2023/04/19 01:27:49;;;;;;;19.17;6.80;;;;;;;4.22;100.00;102715.16;7394063;19;20423;-35
2023/04/19 01:30:18;;;;;;;19.63;9.93;;;;;;;4.24;100.00;102716.19;7390935;19;20841;-36
2023/04/19 01:32:48;;;;;;;12.40;5.67;;;;;;;4.21;100.00;102715.91;7393820;19;20491;-36
2023/04/19 01:35:17;;;;;;;17.83;8.20;;;;;;;4.22;100.00;102705.84;7389910;19;20459;-36
2023/04/19 01:37:52;;;;;;;12.77;5.77;;;;;;;4.26;100.00;102713.03;7393502;19;20652;-35
2023/04/19 01:40:22;;;;;;;13.83;6.50;;;;;;;4.36;100.00;102721.63;7391446;19;21018;-36
2023/04/19 01:42:51;;;;;;;15.97;6.20;;;;;;;4.37;100.00;102715.78;7394349;19;20945;-36
2023/04/19 01:45:21;;;;;;;14.77;6.57;;;;;;;4.35;100.00;102715.63;7389960;19;20467;-36
2023/04/19 01:47:51;;;;;;;14.73;4.70;;;;;;;4.23;100.00;102696.50;7394564;19;20419;-36
2023/04/19 01:50:21;;;;;;;9.37;5.20;;;;;;;4.23;100.00;102706.72;7390418;19;20458;-37
2023/04/19 01:52:53;;;;;;;16.00;5.17;;;;;;;4.31;100.00;102711.84;7393088;19;20437;-36
2023/04/19 01:55:22;;;;;;;21.17;8.23;;;;;;;4.26;100.00;102700.28;7389988;19;20455;-35
2023/04/19 01:57:53;;;;;;;9.40;4.47;;;;;;;4.17;100.00;102690.03;7392977;19;20407;-35
2023/04/19 02:00:23;;;;;;;12.23;5.50;;;;;;;4.06;100.00;102685.53;7390942;19;20804;-36
2023/04/19 02:02:52;;;;;;;7.10;4.40;;;;;;;3.99;100.00;102676.34;7392772;19;20407;-36
2023/04/19 02:05:22;;;;;;;12.90;4.80;;;;;;;4.01;100.00;102679.94;7389611;19;20480;-36
2023/04/19 02:07:54;;;;;;;37.57;18.07;;;;;;;4.01;100.00;102679.06;7392845;19;20431;-36
2023/04/19 02:10:24;;;;;;;22.10;10.73;;;;;;;3.95;100.00;102668.25;7390186;19;20466;-36
2023/04/19 02:12:53;;;;;;;13.73;6.80;;;;;;;3.86;100.00;102673.34;7392903;19;20415;-37
2023/04/19 02:15:23;;;;;;;15.33;7.83;;;;;;;3.88;100.00;102676.94;7389186;19;21050;-36
2023/04/19 02:17:53;;;;;;;14.90;4.97;;;;;;;3.78;100.00;102681.13;7392696;19;20779;-36
2023/04/19 02:20:23;;;;;;;10.33;5.20;;;;;;;3.76;100.00;102691.94;7390646;19;20447;-36
2023/04/19 02:22:55;;;;;;;10.53;5.17;;;;;;;3.76;100.00;102692.81;7392281;19;20799;-36
2023/04/19 02:25:25;;;;;;;10.83;5.37;;;;;;;3.71;100.00;102688.94;7392760;19;20490;-36
2023/04/19 02:27:54;;;;;;;7.90;4.73;;;;;;;3.69;100.00;102692.09;7399203;19;20777;-36
2023/04/19 02:30:24;;;;;;;12.13;5.60;;;;;;;3.71;100.00;102713.56;7397239;19;20451;-36
2023/04/19 02:32:53;;;;;;;26.23;10.63;;;;;;;3.72;100.00;102711.16;7398845;19;20411;-36
2023/04/19 02:35:23;;;;;;;8.93;4.60;;;;;;;3.58;100.00;102707.19;7395465;19;20463;-35
2023/04/19 02:37:55;;;;;;;11.23;5.00;;;;;;;3.53;100.00;102712.59;7398419;19;20435;-35
2023/04/19 02:40:26;;;;;;;23.60;12.07;;;;;;;3.53;100.00;102726.25;7397414;19;20455;-36
2023/04/19 02:42:55;;;;;;;25.10;11.30;;;;;;;3.44;100.00;102731.31;7401478;19;20407;-35
2023/04/19 02:45:25;;;;;;;12.70;5.63;;;;;;;3.37;100.00;102739.09;7396410;19;21069;-36
2023/04/19 02:47:54;;;;;;;12.40;5.60;;;;;;;3.32;100.00;102736.06;7397915;19;21072;-36
2023/04/19 02:50:24;;;;;;;16.63;6.70;;;;;;;3.31;100.00;102751.22;7396712;19;20534;-36
2023/04/19 02:52:56;;;;;;;9.83;4.60;;;;;;;3.28;100.00;102750.91;7397012;19;20403;-36
2023/04/19 02:55:26;;;;;;;10.50;5.20;;;;;;;3.31;100.00;102751.22;7395006;19;20459;-36
2023/04/19 02:57:55;;;;;;;15.50;5.73;;;;;;;3.33;100.00;102742.97;7398100;19;20407;-36
2023/04/19 03:00:25;;;;;;;18.10;7.67;;;;;;;3.32;100.00;102743.72;7396986;19;20462;-36
2023/04/19 03:02:54;;;;;;;10.43;5.20;;;;;;;3.35;100.00;102732.94;7398272;19;20438;-36
2023/04/19 03:05:24;;;;;;;11.47;4.90;;;;;;;3.33;100.00;102735.31;7394884;19;20990;-37
2023/04/19 03:07:56;;;;;;;12.80;5.83;;;;;;;3.22;100.00;102718.91;7398182;19;20407;-37
2023/04/19 03:10:26;;;;;;;8.10;4.60;;;;;;;3.29;100.00;102723.03;7396186;19;20443;-36
2023/04/19 03:12:55;;;;;;;13.60;4.97;;;;;;;3.28;100.00;102710.97;7400021;19;20403;-36
2023/04/19 03:15:25;;;;;;;9.70;4.30;;;;;;;3.25;100.00;102710.69;7394963;19;20470;-36
2023/04/19 03:17:55;;;;;;;18.53;7.63;;;;;;;3.28;100.00;102710.97;7398174;19;20383;-36
2023/04/19 03:20:25;;;;;;;24.67;10.47;;;;;;;3.33;100.00;102720.00;7393190;19;20482;-36
2023/04/19 03:22:57;;;;;;;11.90;5.23;;;;;;;3.35;100.00;102705.75;7393741;19;21080;-36
2023/04/19 03:25:26;;;;;;;15.57;5.73;;;;;;;3.37;100.00;102714.50;7391618;19;20467;-36
2023/04/19 03:27:56;;;;;;;11.17;5.23;;;;;;;3.44;100.00;102710.00;7396075;19;20395;-36
2023/04/19 03:30:25;;;;;;;11.40;4.70;;;;;;;3.40;100.00;102700.22;7392571;19;20399;-36
2023/04/19 03:32:55;;;;;;;14.63;7.10;;;;;;;3.47;100.00;102703.56;7393073;19;20931;-36
2023/04/19 03:35:25;;;;;;;10.07;4.30;;;;;;;3.37;100.00;102694.06;7394741;19;20467;-36
2023/04/19 03:37:57;;;;;;;12.40;4.30;;;;;;;3.22;100.00;102685.75;7391030;19;20418;-36
2023/04/19 03:40:26;;;;;;;17.20;8.13;;;;;;;3.26;100.00;102692.06;7392022;19;20958;-37
2023/04/19 03:42:56;;;;;;;41.43;17.30;;;;;;;3.46;100.00;102728.94;7392930;19;20396;-36
2023/04/19 03:45:26;;;;;;;48.13;18.97;;;;;;;3.47;100.00;102748.59;7391143;19;20422;-37
2023/04/19 03:47:55;;;;;;;19.57;8.17;;;;;;;3.36;100.00;102743.31;7392913;19;20392;-37
2023/04/19 03:50:25;;;;;;;20.50;9.83;;;;;;;3.37;100.00;102745.13;7392425;19;20978;-37
2023/04/19 03:52:57;;;;;;;20.53;8.27;;;;;;;3.41;100.00;102753.06;7396291;19;20951;-36
2023/04/19 03:55:26;;;;;;;18.53;8.60;;;;;;;3.43;100.00;102747.38;7390647;19;20427;-37
2023/04/19 03:57:56;;;;;;;13.63;7.03;;;;;;;3.37;100.00;102734.91;7394775;19;20804;-37
2023/04/19 04:00:26;;;;;;;21.87;7.10;;;;;;;3.38;100.00;102726.50;7391971;19;20415;-37
2023/04/19 04:02:55;;;;;;;10.50;4.83;;;;;;;3.47;100.00;102720.53;7394736;19;20927;-37
2023/04/19 04:05:25;;;;;;;13.37;4.90;;;;;;;3.48;100.00;102720.69;7390312;19;20423;-36
2023/04/19 04:07:58;;;;;;;13.63;4.70;;;;;;;3.47;100.00;102705.19;7392780;19;20396;-37
2023/04/19 04:10:27;;;;;;;12.73;4.10;;;;;;;3.42;100.00;102691.97;7391696;19;20442;-37
2023/04/19 04:12:57;;;;;;;9.20;3.93;;;;;;;3.42;100.00;102683.41;7392394;19;20411;-37
2023/04/19 04:15:26;;;;;;;11.57;4.67;;;;;;;3.41;100.00;102676.50;7390110;19;20438;-37
2023/04/19 04:17:56;;;;;;;10.07;4.90;;;;;;;3.37;100.00;102662.53;7392450;19;20414;-38
2023/04/19 04:20:26;;;;;;;18.77;8.20;;;;;;;3.38;100.00;102660.16;7391175;19;20499;-36
2023/04/19 04:22:58;;;;;;;17.50;6.57;;;;;;;3.31;100.00;102651.69;7392514;19;20388;-36
2023/04/19 04:25:27;;;;;;;14.00;6.90;;;;;;;3.26;100.00;102641.03;7390042;19;20970;-38
2023/04/19 04:27:57;;;;;;;26.03;11.43;;;;;;;3.42;100.00;102656.25;7392125;19;20410;-37
2023/04/19 04:30:27;;;;;;;12.57;5.90;;;;;;;3.44;100.00;102646.22;7390903;19;20415;-36
2023/04/19 04:32:57;;;;;;;8.00;3.63;;;;;;;3.29;100.00;102620.94;7392367;19;20398;-36
2023/04/19 04:35:29;;;;;;;9.20;4.50;;;;;;;3.29;100.00;102610.75;7389261;19;20434;-37
2023/04/19 04:38:02;;;;;;;12.10;6.07;;;;;;;3.39;100.00;102607.47;7391085;19;20370;-36
2023/04/19 04:40:46;;;;;;;10.40;4.80;;;;;;;3.42;100.00;102599.19;7392654;19;20445;-36
2023/04/19 04:43:16;;;;;;;12.20;6.00;;;;;;;3.32;100.00;102589.72;7389172;19;20387;-37
2023/04/19 04:45:45;;;;;;;9.20;3.70;;;;;;;3.33;100.00;102578.78;7390367;19;20416;-36
2023/04/19 04:48:15;;;;;;;11.60;5.13;;;;;;;3.32;100.00;102575.31;7389057;19;20406;-37
2023/04/19 04:50:45;;;;;;;7.70;3.70;;;;;;;3.40;100.00;102568.44;7391978;19;20403;-37
2023/04/19 04:53:17;;;;;;;7.30;3.30;;;;;;;3.48;100.00;102561.53;7389108;19;20426;-36
2023/04/19 04:55:47;;;;;;;6.17;3.47;;;;;;;3.49;100.00;102553.16;7391130;19;20450;-36
2023/04/19 04:58:16;;;;;;;6.40;2.87;;;;;;;3.51;100.00;102543.97;7388840;19;20388;-37
2023/04/19 05:00:48;;;;;;;7.60;3.00;;;;;;;3.51;100.00;102536.31;7390865;19;20383;-36
2023/04/19 05:03:18;;;;;;;9.40;4.53;;;;;;;3.60;100.00;102539.75;7388520;19;20391;-36
2023/04/19 05:05:48;;;;;;;12.43;3.67;;;;;;;3.65;100.00;102528.34;7390218;19;20432;-36
2023/04/19 05:08:20;;;;;;;9.00;3.47;;;;;;;3.63;100.00;102524.75;7388957;19;20863;-37
2023/04/19 05:10:50;;;;;;;5.67;2.93;;;;;;;3.62;100.00;102512.75;7390427;19;20396;-36
2023/04/19 05:13:19;;;;;;;8.47;2.73;;;;;;;3.66;100.00;102511.41;7387646;19;20399;-36
2023/04/19 05:15:49;;;;;;;17.10;7.43;;;;;;;3.76;100.00;102505.53;7394440;19;20432;-37
2023/04/19 05:18:18;;;;;;;9.77;4.00;;;;;;;3.88;100.00;102504.19;7388853;19;20420;-36
2023/04/19 05:20:48;;;;;;;5.17;2.60;;;;;;;3.87;100.00;102487.06;7389505;19;20402;-36
2023/04/19 05:23:20;;;;;;;8.10;3.60;;;;;;;3.90;100.00;102486.47;7387370;19;20395;-36
2023/04/19 05:25:50;;;;;;;8.83;2.70;;;;;;;3.98;100.00;102484.63;7394307;19;20435;-37
2023/04/19 05:28:19;;;;;;;6.87;2.83;;;;;;;4.03;100.00;102483.41;7387841;19;20394;-37
2023/04/19 05:30:49;;;;;;;7.47;2.80;;;;;;;4.13;100.00;102483.56;7389696;19;20367;-37
2023/04/19 05:33:18;;;;;;;7.53;3.17;;;;;;;4.19;100.00;102476.47;7387509;19;20395;-37
2023/04/19 05:35:48;;;;;;;8.93;3.80;;;;;;;4.21;100.00;102474.06;7388974;19;20415;-36
2023/04/19 05:38:20;;;;;;;15.47;6.57;;;;;;;4.35;100.00;102471.94;7386359;19;20725;-36
2023/04/19 05:40:49;;;;;;;7.47;4.03;;;;;;;4.52;100.00;102474.38;7389512;19;20399;-37
2023/04/19 05:43:19;;;;;;;9.50;4.60;;;;;;;4.85;100.00;102462.97;7387261;19;20388;-37
2023/04/19 05:45:48;;;;;;;12.30;6.07;;;;;;;5.11;100.00;102461.00;7388997;19;20544;-36
2023/04/19 05:48:18;;;;;;;24.03;11.93;;;;;;;5.13;100.00;102460.38;7387840;19;20400;-36
2023/04/19 05:50:48;;;;;;;12.77;5.37;;;;;;;5.23;100.00;102462.09;7390673;19;20376;-36
2023/04/19 05:53:20;;;;;;;9.53;5.20;;;;;;;5.53;100.00;102465.66;7385931;19;20915;-36
2023/04/19 05:55:50;;;;;;;9.80;2.80;;;;;;;5.34;100.00;102475.88;7388580;19;20416;-36
2023/04/19 05:58:20;;;;;;;4.67;2.43;;;;;;;5.27;100.00;102479.56;7389419;19;20408;-36
2023/04/19 06:00:50;;;;;;;5.90;3.10;;;;;;;5.19;100.00;102490.75;7387004;19;20387;-36
2023/04/19 06:03:19;;;;;;;5.47;2.53;;;;;;;5.11;100.00;102497.72;7385944;19;20503;-37
2023/04/19 06:05:49;;;;;;;6.27;2.63;;;;;;;5.10;100.00;102497.56;7384786;19;20439;-37
2023/04/19 06:08:21;;;;;;;19.77;7.83;;;;;;;5.17;100.00;102496.50;7389780;19;20759;-36
2023/04/19 06:10:53;;;;;;;12.97;5.00;;;;;;;5.23;100.00;102508.16;7392761;19;20403;-36
2023/04/19 06:13:30;;;;;;;9.30;3.90;;;;;;;5.35;100.00;102508.41;7388282;19;20446;-37
2023/04/19 06:15:59;;;;;;;4.30;2.23;;;;;;;5.49;100.00;102496.84;7392930;19;20439;-36
2023/04/19 06:18:29;;;;;;;8.77;3.33;;;;;;;5.58;100.00;102507.03;7389032;19;20507;-36
2023/04/19 06:20:58;;;;;;;87.17;35.07;;;;;;;5.64;100.00;102519.50;7392309;19;21013;-37
2023/04/19 06:23:31;;;;;;;12.90;5.70;;;;;;;5.69;100.00;102515.66;7388503;19;20411;-37
2023/04/19 06:26:00;;;;;;;9.00;3.50;;;;;;;5.79;100.00;102522.50;7393776;19;20526;-36
2023/04/19 06:28:30;;;;;;;19.00;6.40;;;;;;;5.86;100.00;102526.53;7388918;19;25218;-37
2023/04/19 06:31:00;;;;;;;8.57;3.30;;;;;;;5.96;100.00;102531.72;7392709;19;20427;-37
2023/04/19 06:33:30;;;;;;;9.03;3.30;;;;;;;5.98;100.00;102534.41;7386507;19;25399;-38
2023/04/19 06:35:59;;;;;;;8.97;3.40;;;;;;;6.07;100.00;102536.16;7391679;19;20966;-36
2023/04/19 06:38:32;;;;;;;7.07;3.57;;;;;;;6.20;100.00;102542.34;7387724;19;20407;-37
2023/04/19 06:41:01;;;;;;;12.37;3.67;;;;;;;6.17;100.00;102539.53;7391968;19;20762;-37
2023/04/19 06:43:31;;;;;;;6.93;3.37;;;;;;;6.24;100.00;102553.81;7385725;19;21104;-37
2023/04/19 06:46:00;;;;;;;16.87;7.83;;;;;;;6.19;100.00;102556.84;7392126;19;20817;-38
2023/04/19 06:48:30;;;;;;;12.87;5.63;;;;;;;6.28;100.00;102564.47;7388176;19;20433;-36
2023/04/19 06:51:00;;;;;;;6.23;2.40;;;;;;;6.51;100.00;102549.28;7391742;19;20736;-37
2023/04/19 06:53:32;;;;;;;19.03;8.07;;;;;;;6.84;100.00;102533.34;7385247;19;20976;-37
2023/04/19 06:56:03;;;;;;;15.43;6.10;;;;;;;6.97;100.00;102547.22;7391869;19;20447;-40
2023/04/19 06:58:33;;;;;;;37.80;15.13;;;;;;;6.89;100.00;102591.06;7387971;19;20411;-37
2023/04/19 07:01:05;;;;;;;13.30;6.40;;;;;;;6.84;100.00;102610.34;7391817;19;20451;-36
2023/04/19 07:03:35;;;;;;;28.03;10.77;;;;;;;7.04;100.00;102621.41;7387237;19;20424;-36
2023/04/19 07:06:05;;;;;;;8.43;2.50;;;;;;;7.11;100.00;102638.22;7391548;19;20443;-36
2023/04/19 07:08:37;;;;;;;10.60;2.03;;;;;;;7.36;100.00;102618.13;7386875;19;20431;-37
2023/04/19 07:11:18;;;;;;;4.63;1.87;;;;;;;7.40;100.00;102648.41;7390107;19;20423;-37
2023/04/19 07:13:50;;;;;;;4.90;1.60;;;;;;;7.50;100.00;102645.00;7393778;19;20415;-36
2023/04/19 07:16:19;;;;;;;4.07;1.50;;;;;;;7.51;100.00;102668.97;7396778;19;20551;-36
2023/04/19 07:18:49;;;;;;;7.90;1.80;;;;;;;7.54;100.00;102677.84;7394448;19;20411;-37
2023/04/19 07:21:18;;;;;;;4.30;1.80;;;;;;;7.62;100.00;102675.94;7396163;19;20412;-36
2023/04/19 07:23:50;;;;;;;3.67;1.53;;;;;;;7.66;100.00;102696.00;7391909;19;20415;-36
2023/04/19 07:26:20;;;;;;;14.13;5.03;;;;;;;7.73;100.00;102693.94;7396886;19;20459;-36
2023/04/19 07:28:50;;;;;;;6.43;2.53;;;;;;;7.79;100.00;102704.75;7394355;19;20422;-36
2023/04/19 07:31:20;;;;;;;22.33;8.87;;;;;;;7.92;100.00;102687.00;7396045;19;20424;-36
2023/04/19 07:33:49;;;;;;;4.17;1.70;;;;;;;8.04;100.00;102693.91;7393022;19;20407;-36
2023/04/19 07:36:19;;;;;;;7.00;2.20;;;;;;;7.96;100.00;102701.88;7397060;19;20809;-36
2023/04/19 07:38:51;;;;;;;6.87;2.50;;;;;;;7.95;100.00;102702.66;7392001;19;20520;-36
2023/04/19 07:41:21;;;;;;;11.30;3.43;;;;;;;8.05;100.00;102706.91;7395814;19;20938;-36
2023/04/19 07:43:50;;;;;;;8.57;3.10;;;;;;;8.23;100.00;102698.91;7393694;19;20435;-36
2023/04/19 07:46:20;;;;;;;11.37;3.90;;;;;;;8.35;100.00;102701.59;7396135;19;20455;-36
2023/04/19 07:48:50;;;;;;;11.27;4.90;;;;;;;8.43;100.00;102702.22;7393849;19;20807;-36
2023/04/19 07:51:19;;;;;;;21.83;9.40;;;;;;;8.57;100.00;102698.25;7394791;19;20420;-36
2023/04/19 07:53:51;;;;;;;10.53;3.80;;;;;;;8.60;100.00;102706.19;7391569;19;20411;-37
2023/04/19 07:56:21;;;;;;;20.63;6.30;;;;;;;8.64;100.00;102703.09;7396748;19;20467;-36
2023/04/19 07:58:50;;;;;;;5.00;2.10;;;;;;;8.66;100.00;102700.66;7393428;19;20958;-36
2023/04/19 08:01:35;;;;;;;5.90;2.50;;;;;;;8.69;100.00;102704.38;7395569;19;20415;-36
2023/04/19 08:04:05;;;;;;;3.90;1.20;;;;;;;8.80;100.00;102705.25;7393310;19;20539;-36
2023/04/19 08:06:36;;;;;;;19.23;6.40;;;;;;;8.99;100.00;102701.56;7395824;19;20456;-36
2023/04/19 08:09:08;;;;;;;4.50;1.43;;;;;;;9.02;100.00;102707.84;7393386;19;20459;-39
2023/04/19 08:11:38;;;;;;;4.23;2.00;;;;;;;9.12;100.00;102706.03;7394851;19;20404;-36
2023/04/19 08:14:08;;;;;;;5.03;1.47;;;;;;;9.26;100.00;102696.78;7387549;19;20447;-36
2023/04/19 08:16:57;;;;;;;6.23;2.63;;;;;;;9.13;100.00;102694.94;7390176;19;20959;-36
2023/04/19 08:19:48;;;;;;;8.17;3.40;;;;;;;9.29;100.00;102695.34;7389032;19;20427;-36
2023/04/19 08:22:18;;;;;;;6.30;2.57;;;;;;;9.36;100.00;102695.81;7389214;19;20387;-36
2023/04/19 08:24:51;;;;;;;11.43;5.10;;;;;;;9.46;100.00;102685.47;7388159;19;20411;-36
2023/04/19 08:27:21;;;;;;;5.70;2.40;;;;;;;9.50;100.00;102697.81;7392537;19;20396;-37
2023/04/19 08:29:51;;;;;;;4.03;1.80;;;;;;;9.64;100.00;102685.09;7389902;19;20438;-36
2023/04/19 08:32:20;;;;;;;40.13;20.53;;;;;;;10.04;100.00;102687.19;7390672;19;20384;-36
2023/04/19 08:34:50;;;;;;;33.80;18.23;;;;;;;10.33;100.00;102676.47;7388101;19;20445;-37
2023/04/19 08:37:19;;;;;;;13.90;6.30;;;;;;;10.32;100.00;102674.66;7390214;19;20399;-37
2023/04/19 08:39:52;;;;;;;12.23;4.57;;;;;;;10.52;100.00;102663.22;7389610;19;20408;-36
2023/04/19 08:42:21;;;;;;;4.00;1.60;;;;;;;10.36;100.00;102652.56;7392412;19;20390;-36
2023/04/19 08:45:07;;;;;;;6.07;3.10;;;;;;;10.31;100.00;102644.47;7388416;19;20449;-37
2023/04/19 08:47:39;;;;;;;5.10;1.77;;;;;;;10.36;100.00;102635.38;7391178;19;20363;-36
2023/04/19 08:50:27;;;;;;;17.77;8.23;;;;;;;10.42;100.00;102641.78;7389360;19;20423;-36
2023/04/19 08:53:07;;;;;;;5.60;2.90;;;;;;;10.49;99.90;102620.81;7391614;19;20410;-36
2023/04/19 08:55:57;;;;;;;5.30;1.40;;;;;;;10.57;100.00;102627.44;7389859;19;20439;-36
2023/04/19 08:58:46;;;;;;;8.33;1.67;;;;;;;10.36;96.62;102608.69;7389077;19;20433;-36
2023/04/19 09:01:18;;;;;;;4.80;1.87;;;;;;;10.35;96.15;102623.28;7389700;19;20899;-37
2023/04/19 09:04:04;;;;;;;4.63;1.77;;;;;;;10.50;95.83;102617.44;7387984;19;20840;-36
2023/04/19 09:06:54;;;;;;;5.77;2.63;;;;;;;10.67;95.30;102611.81;7389408;19;20410;-36
2023/04/19 09:09:24;;;;;;;3.70;1.70;;;;;;;10.71;94.99;102606.88;7389068;19;20419;-36
2023/04/19 09:12:00;;;;;;;6.20;2.70;;;;;;;10.68;94.03;102592.06;7395264;19;20376;-37
2023/04/19 09:14:30;;;;;;;7.20;3.67;;;;;;;10.87;94.92;102596.81;7387134;19;20541;-36
2023/04/19 09:17:14;;;;;;;5.10;1.40;;;;;;;11.01;94.62;102602.06;7390435;19;20431;-36
2023/04/19 09:19:48;;;;;;;5.20;2.23;;;;;;;11.19;93.66;102593.00;7389064;19;20422;-36
2023/04/19 09:22:18;;;;;;;8.90;2.87;;;;;;;11.40;92.64;102597.84;7389607;19;21045;-36
2023/04/19 09:24:47;;;;;;;5.23;2.03;;;;;;;11.18;91.04;102580.00;7387557;19;20431;-37
2023/04/19 09:27:27;;;;;;;5.33;2.10;;;;;;;11.29;91.11;102579.00;7394073;19;20383;-38
2023/04/19 09:29:58;;;;;;;6.83;1.97;;;;;;;11.26;90.94;102575.31;7387496;19;20834;-36
2023/04/19 09:32:27;;;;;;;4.40;1.67;;;;;;;11.18;86.52;102555.03;7391285;19;20414;-36
2023/04/19 09:34:58;;;;;;;4.63;2.00;;;;;;;11.33;86.82;102559.44;7384240;19;20440;-36
2023/04/19 09:37:28;;;;;;;4.73;1.70;;;;;;;11.24;84.30;102545.91;7389105;19;20392;-37
2023/04/19 09:40:24;;;;;;;2.23;0.40;;;;;;;11.39;84.88;102543.47;7388353;19;20435;-36
2023/04/19 09:42:56;;;;;;;4.67;1.90;;;;;;;11.37;84.35;102551.09;7390215;19;20395;-36
2023/04/19 09:45:29;;;;;;;5.03;2.37;;;;;;;11.40;79.60;102528.06;7388135;19;21064;-38
2023/04/19 09:48:03;;;;;;;5.07;2.53;;;;;;;11.44;77.21;102517.13;7389676;19;20388;-36
2023/04/19 09:50:33;;;;;;;6.00;2.47;;;;;;;11.23;73.54;102506.25;7388135;19;20495;-37
2023/04/19 09:53:23;;;;;;;8.77;2.77;;;;;;;11.39;74.34;102513.34;7388199;19;20390;-38
2023/04/19 09:55:54;;;;;;;6.13;2.37;;;;;;;11.39;72.29;102492.66;7388965;19;20436;-36
2023/04/19 09:58:33;;;;;;;4.73;1.87;;;;;;;11.23;70.25;102498.50;7387732;19;20379;-38
2023/04/19 10:01:21;;;;;;;11.53;2.07;;;;;;;11.08;69.22;102480.31;7391099;19;20407;-36
2023/04/19 10:03:51;;;;;;;6.30;2.60;;;;;;;11.29;69.60;102491.16;7386533;19;20970;-36
2023/04/19 10:06:22;;;;;;;5.87;2.37;;;;;;;11.40;69.58;102489.31;7389067;19;20419;-36
2023/04/19 10:08:56;;;;;;;6.93;2.37;;;;;;;11.42;69.60;102485.13;7386961;19;20427;-36
2023/04/19 10:11:29;;;;;;;6.90;2.70;;;;;;;11.68;71.27;102488.50;7389167;19;20419;-38
2023/04/19 10:14:02;;;;;;;11.83;2.77;;;;;;;11.59;69.97;102482.75;7386511;19;20411;-36
2023/04/19 10:16:32;;;;;;;4.80;2.63;;;;;;;11.33;69.09;102474.16;7388742;19;20446;-36
2023/04/19 10:19:01;;;;;;;5.43;2.60;;;;;;;11.70;68.08;102462.75;7386802;19;20418;-37
2023/04/19 10:21:31;;;;;;;6.93;2.40;;;;;;;11.75;66.58;102462.25;7388936;19;20434;-36
2023/04/19 10:24:01;;;;;;;4.37;2.43;;;;;;;11.60;64.87;102450.94;7385846;19;20998;-38
2023/04/19 10:26:31;;;;;;;5.67;2.40;;;;;;;11.61;64.68;102448.47;7389072;19;20434;-35
2023/04/19 10:29:03;;;;;;;4.70;2.20;;;;;;;11.43;62.87;102439.50;7386833;19;20963;-35
2023/04/19 10:31:32;;;;;;;10.57;3.23;;;;;;;11.69;64.81;102467.03;7385101;19;20415;-35
2023/04/19 10:34:02;;;;;;;4.90;2.10;;;;;;;11.95;65.15;102448.81;7382417;19;20419;-36
2023/04/19 10:36:32;;;;;;;5.67;2.37;;;;;;;12.00;64.06;102448.28;7387397;19;20463;-36
2023/04/19 10:39:02;;;;;;;7.37;2.17;;;;;;;12.05;63.02;102429.63;7387763;19;20403;-36
2023/04/19 10:41:59;;;;;;;4.90;2.33;;;;;;;12.36;62.67;102431.53;7390921;19;20410;-36
2023/04/19 10:44:31;;;;;;;10.27;3.17;;;;;;;12.27;60.36;102417.19;7387329;19;20447;-35
2023/04/19 10:47:01;;;;;;;7.17;2.70;;;;;;;12.18;59.90;102413.16;7395514;19;21014;-36
2023/04/19 10:49:31;;;;;;;9.70;2.37;;;;;;;12.27;59.43;102416.31;7395011;19;20467;-35
2023/04/19 10:52:00;;;;;;;7.60;2.33;;;;;;;12.19;59.87;102423.59;7398636;19;20799;-35
2023/04/19 10:54:31;;;;;;;5.17;2.00;;;;;;;12.22;59.18;102418.63;7393815;19;20551;-36
2023/04/19 10:57:05;;;;;;;4.90;2.10;;;;;;;12.14;58.26;102386.19;7398043;19;20439;-35
2023/04/19 10:59:39;;;;;;;6.00;2.70;;;;;;;12.03;58.38;102403.63;7395130;19;20450;-36
2023/04/19 11:02:31;;;;;;;7.20;2.20;;;;;;;11.64;56.31;102401.19;7398777;19;20770;-36
2023/04/19 11:05:02;;;;;;;7.27;2.40;;;;;;;11.80;55.25;102387.53;7389410;19;20454;-36
2023/04/19 11:07:43;;;;;;;7.67;2.40;;;;;;;11.74;55.51;102390.66;7399281;19;20414;-36
2023/04/19 11:10:13;;;;;;;7.17;2.20;;;;;;;11.89;55.87;102382.06;7396660;19;20458;-36
2023/04/19 11:12:46;;;;;;;10.90;2.37;;;;;;;11.97;56.91;102396.38;7397458;19;20761;-36
2023/04/19 11:15:18;;;;;;;5.50;2.30;;;;;;;11.91;53.90;102354.63;7394193;19;21017;-36
2023/04/19 11:17:51;;;;;;;7.10;2.50;;;;;;;11.70;51.32;102330.91;7399625;19;20431;-35
2023/04/19 11:20:40;;;;;;;6.60;1.80;;;;;;;11.71;51.52;102341.34;7398579;19;21040;-37
2023/04/19 11:23:18;;;;;;;5.40;2.03;;;;;;;11.80;51.77;102337.53;7396210;19;20418;-35
2023/04/19 11:25:48;;;;;;;5.30;2.40;;;;;;;11.91;52.74;102346.88;7397495;19;20473;-36
2023/04/19 11:28:20;;;;;;;5.23;2.50;;;;;;;12.02;52.83;102343.22;7395062;19;20419;-36
2023/04/19 11:30:52;;;;;;;5.07;2.20;;;;;;;11.84;50.54;102316.25;7399048;19;20412;-36
2023/04/19 11:33:24;;;;;;;152.77;75.27;;;;;;;12.00;53.66;102364.66;7392993;19;20779;-35
2023/04/19 11:35:54;;;;;;;12.10;5.17;;;;;;;11.87;53.55;102369.06;7396235;19;20455;-35
2023/04/19 11:38:23;;;;;;;7.33;2.47;;;;;;;11.56;50.54;102335.19;7393040;19;20415;-37